createdAt,value
2022-10-28T00:01:30.047Z,23.50
2022-10-28T00:03:59.354Z,21.50
2022-10-28T00:06:33.535Z,22.50
2022-10-28T00:11:37.360Z,24.77
2022-10-28T00:14:10.980Z,23.40
2022-10-28T00:16:38.869Z,22.70
2022-10-28T00:19:07.764Z,21.38
2022-10-28T00:21:36.468Z,20.88
2022-10-28T00:24:03.627Z,21.02
2022-10-28T00:26:32.613Z,21.52
2022-10-28T00:29:01.696Z,20.58
2022-10-28T00:31:30.097Z,18.20
2022-10-28T00:33:59.012Z,18.00
2022-10-28T00:36:37.531Z,18.60
2022-10-28T00:39:11.657Z,16.67
2022-10-28T00:41:41.527Z,16.25
2022-10-28T00:44:46.039Z,19.77
2022-10-28T00:47:31.565Z,17.60
2022-10-28T00:50:40.183Z,17.35
2022-10-28T00:53:13.060Z,18.58
2022-10-28T00:55:40.479Z,17.08
2022-10-28T00:58:09.551Z,17.55
2022-10-28T01:00:36.695Z,17.10
2022-10-28T01:03:03.670Z,17.65
2022-10-28T01:05:33.491Z,18.50
2022-10-28T01:08:02.900Z,17.15
2022-10-28T01:10:45.920Z,17.15
2022-10-28T01:14:00.673Z,16.67
2022-10-28T01:16:40.228Z,15.87
2022-10-28T01:19:25.719Z,17.15
2022-10-28T01:21:52.536Z,15.65
2022-10-28T01:24:26.984Z,16.20
2022-10-28T01:26:57.053Z,17.38
2022-10-28T01:29:42.092Z,18.83
2022-10-28T01:32:33.885Z,18.30
2022-10-28T01:38:21.925Z,17.63
2022-10-28T01:41:03.888Z,17.30
2022-10-28T01:43:45.046Z,17.95
2022-10-28T01:46:17.486Z,17.02
2022-10-28T01:48:50.259Z,18.75
2022-10-28T01:51:22.911Z,20.95
2022-10-28T01:53:52.942Z,23.00
2022-10-28T01:56:24.680Z,19.20
2022-10-28T01:58:55.739Z,19.25
2022-10-28T02:01:24.470Z,18.33
2022-10-28T02:03:52.370Z,16.67
2022-10-28T02:06:22.580Z,17.77
2022-10-28T02:09:27.677Z,16.80
2022-10-28T02:12:15.630Z,15.52
2022-10-28T02:15:02.150Z,15.27
2022-10-28T02:17:37.649Z,15.32
2022-10-28T02:20:18.166Z,16.05
2022-10-28T02:22:59.966Z,15.10
2022-10-28T02:25:36.011Z,15.30
2022-10-28T02:30:51.773Z,15.27
2022-10-28T02:33:23.821Z,16.50
2022-10-28T02:36:15.060Z,14.80
2022-10-28T02:38:51.811Z,17.00
2022-10-28T02:41:53.945Z,17.08
2022-10-28T02:44:31.491Z,17.48
2022-10-28T02:47:02.682Z,18.00
2022-10-28T02:49:32.289Z,18.15
2022-10-28T02:52:02.932Z,20.33
2022-10-28T02:54:36.381Z,21.25
2022-10-28T02:57:10.823Z,23.77
2022-10-28T02:59:37.656Z,22.83
2022-10-28T03:02:04.603Z,23.90
2022-10-28T03:04:31.512Z,24.05
2022-10-28T03:25:56.403Z,31.85
2022-10-28T03:28:23.266Z,37.78
2022-10-28T03:30:50.124Z,38.95
2022-10-28T03:33:17.013Z,40.72
2022-10-28T03:35:44.755Z,46.00
2022-10-28T03:38:11.812Z,45.33
2022-10-28T03:40:38.687Z,40.95
2022-10-28T03:43:05.560Z,43.50
2022-10-28T03:45:32.403Z,44.35
2022-10-28T03:47:59.322Z,41.15
2022-10-28T03:50:26.146Z,43.05
2022-10-28T03:52:53.037Z,39.90
2022-10-28T03:55:19.898Z,41.92
2022-10-28T03:57:46.720Z,41.35
2022-10-28T04:00:14.419Z,43.30
2022-10-28T04:02:41.301Z,45.78
2022-10-28T04:05:08.636Z,47.95
2022-10-28T04:07:35.711Z,47.00
2022-10-28T04:10:02.607Z,48.55
2022-10-28T04:12:29.416Z,50.70
2022-10-28T04:14:56.322Z,50.90
2022-10-28T04:17:23.139Z,57.20
2022-10-28T04:19:49.997Z,66.38
2022-10-28T04:22:17.238Z,64.20
2022-10-28T04:24:44.086Z,65.53
2022-10-28T04:27:10.986Z,66.45
2022-10-28T04:29:37.871Z,70.22
2022-10-28T04:32:04.809Z,71.85
2022-10-28T04:34:31.652Z,80.47
2022-10-28T04:36:58.458Z,90.55
2022-10-28T04:39:25.304Z,88.68
2022-10-28T04:41:52.135Z,96.47
2022-10-28T04:44:19.051Z,75.38
2022-10-28T04:46:45.916Z,71.15
2022-10-28T04:49:12.775Z,76.38
2022-10-28T04:51:39.634Z,71.07
2022-10-28T04:54:06.638Z,63.33
2022-10-28T04:56:33.588Z,65.38
2022-10-28T04:59:00.497Z,67.13
2022-10-28T05:01:27.487Z,59.03
2022-10-28T05:03:54.494Z,67.60
2022-10-28T05:06:21.417Z,70.38
2022-10-28T05:08:48.288Z,72.82
2022-10-28T05:11:15.319Z,77.05
2022-10-28T05:13:42.185Z,68.95
2022-10-28T05:16:09.083Z,69.38
2022-10-28T05:18:35.989Z,67.57
2022-10-28T05:21:02.926Z,68.28
2022-10-28T05:23:30.795Z,56.20
2022-10-28T05:25:58.098Z,57.95
2022-10-28T05:28:24.995Z,56.70
2022-10-28T05:30:52.109Z,52.60
2022-10-28T05:33:19.059Z,53.67
2022-10-28T05:35:45.937Z,48.10
2022-10-28T05:38:12.840Z,43.90
2022-10-28T05:40:39.726Z,39.72
2022-10-28T05:43:06.625Z,32.53
2022-10-28T05:45:33.477Z,27.15
2022-10-28T05:48:00.349Z,24.25
2022-10-28T05:50:27.627Z,23.80
2022-10-28T05:52:57.552Z,20.67
2022-10-28T05:55:28.356Z,22.45
2022-10-28T05:57:56.220Z,22.05
2022-10-28T06:00:25.761Z,20.58
2022-10-28T06:02:52.956Z,21.08
2022-10-28T06:05:20.677Z,22.58
2022-10-28T06:07:47.528Z,23.40
2022-10-28T06:10:14.457Z,25.42
2022-10-28T06:12:39.938Z,24.80
2022-10-28T06:15:07.244Z,25.83
2022-10-28T06:17:34.211Z,27.90
2022-10-28T06:20:01.353Z,28.38
2022-10-28T06:22:28.235Z,28.35
2022-10-28T06:24:55.070Z,26.27
2022-10-28T06:27:21.929Z,27.90
2022-10-28T06:29:48.930Z,31.08
2022-10-28T06:32:15.742Z,29.08
2022-10-28T06:34:42.655Z,29.17
2022-10-28T06:37:09.569Z,27.05
2022-10-28T06:39:39.206Z,26.15
2022-10-28T06:42:06.023Z,24.73
2022-10-28T06:44:32.917Z,26.73
2022-10-28T06:47:01.354Z,27.15
2022-10-28T06:49:29.363Z,24.42
2022-10-28T06:51:56.229Z,25.13
2022-10-28T06:54:23.134Z,27.88
2022-10-28T06:56:50.052Z,25.05
2022-10-28T06:59:16.851Z,25.52
2022-10-28T07:01:44.353Z,22.27
2022-10-28T07:04:13.246Z,24.95
2022-10-28T07:06:40.747Z,23.50
2022-10-28T07:09:07.992Z,24.52
2022-10-28T07:11:34.837Z,23.23
2022-10-28T07:14:01.969Z,23.63
2022-10-28T07:16:28.793Z,27.13
2022-10-28T07:18:55.613Z,20.98
2022-10-28T07:21:25.753Z,24.27
2022-10-28T07:23:52.581Z,22.33
2022-10-28T07:26:19.402Z,19.42
2022-10-28T07:28:46.274Z,16.77
2022-10-28T07:31:13.168Z,17.60
2022-10-28T07:33:39.965Z,16.05
2022-10-28T07:36:07.529Z,17.05
2022-10-28T07:38:34.932Z,16.05
2022-10-28T07:41:10.262Z,16.45
2022-10-28T07:43:38.202Z,16.73
2022-10-28T07:46:06.568Z,16.45
2022-10-28T07:48:34.432Z,15.43
2022-10-28T07:51:05.746Z,20.02
2022-10-28T07:53:33.278Z,18.38
2022-10-28T07:56:06.000Z,18.25
2022-10-28T07:58:32.929Z,19.42
2022-10-28T08:01:08.716Z,17.60
2022-10-28T08:03:38.808Z,19.20
2022-10-28T08:06:18.253Z,19.27
2022-10-28T08:08:47.004Z,20.52
2022-10-28T08:11:19.834Z,18.92
2022-10-28T08:13:47.190Z,20.77
2022-10-28T08:16:14.086Z,18.50
2022-10-28T08:18:41.146Z,19.45
2022-10-28T08:21:09.524Z,19.80
2022-10-28T08:23:38.395Z,17.67
2022-10-28T08:26:06.362Z,19.65
2022-10-28T08:28:33.249Z,19.08
2022-10-28T08:31:09.124Z,18.45
2022-10-28T08:33:38.241Z,19.35
2022-10-28T08:36:06.574Z,20.35
2022-10-28T08:38:33.511Z,16.52
2022-10-28T08:41:28.028Z,18.20
2022-10-28T08:44:32.474Z,16.70
2022-10-28T08:47:20.115Z,18.08
2022-10-28T08:49:51.042Z,16.42
2022-10-28T08:52:43.102Z,16.67
2022-10-28T08:55:25.977Z,15.55
2022-10-28T08:58:00.955Z,16.33
2022-10-28T09:00:31.517Z,16.25
2022-10-28T09:03:09.249Z,16.58
2022-10-28T09:05:36.308Z,16.25
2022-10-28T09:08:03.582Z,15.43
2022-10-28T09:10:46.324Z,13.02
2022-10-28T09:13:45.098Z,9.55
2022-10-28T09:16:25.245Z,10.10
2022-10-28T09:18:54.304Z,9.32
2022-10-28T09:21:32.664Z,7.85
2022-10-28T09:24:06.134Z,8.70
2022-10-28T09:26:38.664Z,8.82
2022-10-28T09:29:17.635Z,7.65
2022-10-28T09:31:56.241Z,7.40
2022-10-28T09:34:50.851Z,9.10
2022-10-28T09:37:17.619Z,8.18
2022-10-28T09:39:49.832Z,6.78
2022-10-28T09:42:27.596Z,6.68
2022-10-28T09:44:58.300Z,4.80
2022-10-28T09:47:35.501Z,5.53
2022-10-28T09:50:07.552Z,5.00
2022-10-28T09:52:46.288Z,5.22
2022-10-28T09:55:20.511Z,4.93
2022-10-28T09:57:47.554Z,5.88
2022-10-28T10:00:16.385Z,5.57
2022-10-28T10:02:44.801Z,4.22
2022-10-28T10:05:16.976Z,4.45
2022-10-28T10:08:04.994Z,4.22
2022-10-28T10:10:48.515Z,4.00
2022-10-28T10:13:20.379Z,5.03
2022-10-28T10:15:53.967Z,4.80
2022-10-28T10:20:55.963Z,4.50
2022-10-28T10:23:26.834Z,4.40
2022-10-28T10:26:12.604Z,4.20
2022-10-28T10:28:48.511Z,4.50
2022-10-28T10:31:25.580Z,4.85
2022-10-28T10:33:55.841Z,4.40
2022-10-28T10:36:28.454Z,4.85
2022-10-28T10:39:00.793Z,4.97
2022-10-28T10:41:38.931Z,4.93
2022-10-28T10:44:34.013Z,4.00
2022-10-28T10:47:05.785Z,5.40
2022-10-28T10:49:37.397Z,4.40
2022-10-28T10:52:26.211Z,4.90
2022-10-28T10:55:04.835Z,3.88
2022-10-28T10:57:33.449Z,4.07
2022-10-28T11:00:01.196Z,4.53
2022-10-28T11:02:31.737Z,4.78
2022-10-28T11:05:03.076Z,4.50
2022-10-28T11:07:31.683Z,4.30
2022-10-28T11:09:59.472Z,4.18
2022-10-28T11:12:36.742Z,4.43
2022-10-28T11:15:15.656Z,4.35
2022-10-28T11:17:55.277Z,4.22
2022-10-28T11:20:47.691Z,4.22
2022-10-28T11:23:22.953Z,3.95
2022-10-28T11:25:54.553Z,4.30
2022-10-28T11:28:33.504Z,5.07
2022-10-28T11:31:09.522Z,4.63
2022-10-28T11:33:45.249Z,4.38
2022-10-28T11:36:29.965Z,3.60
2022-10-28T11:39:20.806Z,4.43
2022-10-28T11:42:40.207Z,3.20
2022-10-28T11:45:19.872Z,3.63
2022-10-28T11:47:53.162Z,3.92
2022-10-28T11:50:42.547Z,4.15
2022-10-28T11:53:25.346Z,4.05
2022-10-28T11:56:34.299Z,3.85
2022-10-28T11:59:38.825Z,3.70
2022-10-28T12:02:05.733Z,3.08
2022-10-28T12:04:54.207Z,4.55
2022-10-28T12:07:39.728Z,3.85
2022-10-28T12:10:18.549Z,4.45
2022-10-28T12:12:59.727Z,4.35
2022-10-28T12:15:57.654Z,5.13
2022-10-28T12:18:36.313Z,4.50
2022-10-28T12:21:15.491Z,4.25
2022-10-28T12:23:43.450Z,4.38
2022-10-28T12:26:15.792Z,5.28
2022-10-28T12:28:50.136Z,4.07
2022-10-28T12:31:25.759Z,4.43
2022-10-28T12:34:02.222Z,4.57
2022-10-28T12:36:42.989Z,5.22
2022-10-28T12:39:18.568Z,4.93
2022-10-28T12:42:09.755Z,4.15
2022-10-28T12:44:38.805Z,4.72
2022-10-28T12:47:12.072Z,4.80
2022-10-28T12:49:57.572Z,5.00
2022-10-28T12:52:51.920Z,4.82
2022-10-28T12:55:24.624Z,4.63
2022-10-28T12:58:18.712Z,4.20
2022-10-28T13:00:50.698Z,4.93
2022-10-28T13:03:18.923Z,5.40
2022-10-28T13:06:10.633Z,4.18
2022-10-28T13:08:46.713Z,4.97
2022-10-28T13:11:19.567Z,5.47
2022-10-28T13:13:58.366Z,5.40
2022-10-28T13:16:27.957Z,5.18
2022-10-28T13:18:54.793Z,4.53
2022-10-28T13:21:42.901Z,4.72
2022-10-28T13:24:18.324Z,5.20
2022-10-28T13:26:46.810Z,4.82
2022-10-28T13:29:22.720Z,5.43
2022-10-28T13:31:50.914Z,4.75
2022-10-28T13:34:20.605Z,5.85
2022-10-28T13:36:57.704Z,5.60
2022-10-28T13:39:35.871Z,4.95
2022-10-28T13:42:15.006Z,5.88
2022-10-28T13:44:49.572Z,5.38
2022-10-28T13:47:36.451Z,5.60
2022-10-28T13:50:06.168Z,5.50
2022-10-28T13:52:40.991Z,5.57
2022-10-28T13:55:48.347Z,5.85
2022-10-28T13:58:24.625Z,4.93
2022-10-28T14:00:53.501Z,5.78
2022-10-28T14:03:26.344Z,6.07
2022-10-28T14:05:57.542Z,5.63
2022-10-28T14:08:34.703Z,6.78
2022-10-28T14:11:24.770Z,6.32
2022-10-28T14:14:04.095Z,6.30
2022-10-28T14:16:39.721Z,5.32
2022-10-28T14:19:17.142Z,7.13
2022-10-28T14:21:48.202Z,6.20
2022-10-28T14:24:35.248Z,6.78
2022-10-28T14:27:08.203Z,6.88
2022-10-28T14:29:48.288Z,7.80
2022-10-28T14:32:50.272Z,8.10
2022-10-28T14:35:39.381Z,7.40
2022-10-28T14:38:40.229Z,5.90
2022-10-28T14:41:26.845Z,7.18
2022-10-28T14:44:08.634Z,7.28
2022-10-28T14:47:10.372Z,7.45
2022-10-28T14:49:38.538Z,6.68
2022-10-28T14:52:16.478Z,8.10
2022-10-28T14:54:49.226Z,8.82
2022-10-28T14:57:22.209Z,8.50
2022-10-28T14:59:50.993Z,7.97
2022-10-28T15:02:32.889Z,7.35
2022-10-28T15:05:25.519Z,8.35
2022-10-28T15:07:53.248Z,7.75
2022-10-28T15:10:27.448Z,7.80
2022-10-28T15:27:38.923Z,7.75
2022-10-28T15:30:26.360Z,8.55
2022-10-28T15:32:54.697Z,9.60
2022-10-28T15:35:39.996Z,9.15
2022-10-28T15:38:29.554Z,10.40
2022-10-28T15:40:57.296Z,11.77
2022-10-28T15:43:26.133Z,11.45
2022-10-28T15:45:53.092Z,10.57
2022-10-28T15:48:25.037Z,12.40
2022-10-28T15:51:12.304Z,11.30
2022-10-28T15:53:46.343Z,10.35
2022-10-28T15:56:20.536Z,9.90
2022-10-28T16:01:33.274Z,10.88
2022-10-28T16:04:00.184Z,9.75
2022-10-28T16:06:33.723Z,8.20
2022-10-28T16:09:12.772Z,12.02
2022-10-28T16:11:44.477Z,14.73
2022-10-28T16:14:30.148Z,12.05
2022-10-28T16:17:11.684Z,12.98
2022-10-28T16:19:42.232Z,15.25
2022-10-28T16:22:15.817Z,11.25
2022-10-28T16:24:42.699Z,10.60
2022-10-28T16:27:21.919Z,8.38
2022-10-28T16:29:49.491Z,8.63
2022-10-28T16:32:20.511Z,10.15
2022-10-28T16:34:47.328Z,11.00
2022-10-28T16:37:53.817Z,9.40
2022-10-28T16:40:49.918Z,14.18
2022-10-28T16:43:15.402Z,10.35
2022-10-28T16:45:42.459Z,11.73
2022-10-28T16:48:12.905Z,13.02
2022-10-28T16:50:42.461Z,10.20
2022-10-28T16:53:12.442Z,11.85
2022-10-28T16:55:39.516Z,9.80
2022-10-28T16:58:06.989Z,11.00
2022-10-28T17:00:33.964Z,9.95
2022-10-28T17:03:01.389Z,9.82
2022-10-28T17:05:28.755Z,11.50
2022-10-28T17:07:56.272Z,9.95
2022-10-28T17:10:23.691Z,10.43
2022-10-28T17:12:50.983Z,9.30
2022-10-28T17:15:18.592Z,7.65
2022-10-28T17:17:49.077Z,8.90
2022-10-28T17:20:16.269Z,8.57
2022-10-28T17:22:43.136Z,9.55
2022-10-28T17:25:10.837Z,8.75
2022-10-28T17:27:37.706Z,8.60
2022-10-28T17:30:05.403Z,8.25
2022-10-28T17:32:32.351Z,9.18
2022-10-28T17:34:59.176Z,9.57
2022-10-28T17:37:26.002Z,8.98
2022-10-28T17:39:52.926Z,9.85
2022-10-28T17:42:19.745Z,10.95
2022-10-28T17:44:46.599Z,9.27
2022-10-28T17:47:13.444Z,9.68
2022-10-28T17:49:40.247Z,10.98
2022-10-28T17:52:07.133Z,9.27
2022-10-28T17:54:33.975Z,10.68
2022-10-28T17:57:00.877Z,9.88
2022-10-28T17:59:27.707Z,10.48
2022-10-28T18:01:54.880Z,10.73
2022-10-28T18:04:26.618Z,10.52
2022-10-28T18:06:55.342Z,9.27
2022-10-28T18:09:22.743Z,10.48
2022-10-28T18:11:50.615Z,10.23
2022-10-28T18:14:20.240Z,10.82
2022-10-28T18:16:47.184Z,11.82
2022-10-28T18:19:14.248Z,11.10
2022-10-28T18:21:41.168Z,10.50
2022-10-28T18:24:08.490Z,10.40
2022-10-28T18:26:37.534Z,11.30
2022-10-28T18:29:06.153Z,12.23
2022-10-28T18:31:34.201Z,11.38
2022-10-28T18:34:01.901Z,12.02
2022-10-28T18:36:34.418Z,11.70
2022-10-28T18:39:03.904Z,11.23
2022-10-28T18:41:31.407Z,10.80
2022-10-28T18:44:00.627Z,11.52
2022-10-28T18:46:29.281Z,11.50
2022-10-28T18:51:27.963Z,11.63
2022-10-28T18:53:56.611Z,11.45
2022-10-28T18:56:26.223Z,11.32
2022-10-28T18:58:53.112Z,12.02
2022-10-28T19:01:22.985Z,12.20
2022-10-28T19:03:54.725Z,11.45
2022-10-28T19:06:22.627Z,10.82
2022-10-28T19:08:54.438Z,11.80
2022-10-28T19:11:22.668Z,12.18
2022-10-28T19:13:49.835Z,12.15
2022-10-28T19:16:16.664Z,11.68
2022-10-28T19:18:43.593Z,11.40
2022-10-28T19:21:14.965Z,12.25
2022-10-28T19:23:42.917Z,13.55
2022-10-28T19:26:11.255Z,15.10
2022-10-28T19:28:42.980Z,13.20
2022-10-28T19:31:12.495Z,13.45
2022-10-28T19:33:39.746Z,14.35
2022-10-28T19:36:18.871Z,14.02
2022-10-28T19:38:47.359Z,16.52
2022-10-28T19:41:19.404Z,17.10
2022-10-28T19:43:46.918Z,18.00
2022-10-28T19:46:16.367Z,18.23
2022-10-28T19:48:46.334Z,19.17
2022-10-28T19:51:15.765Z,19.23
2022-10-28T19:53:48.398Z,20.65
2022-10-28T19:56:22.302Z,20.38
2022-10-28T19:59:01.005Z,22.38
2022-10-28T20:01:30.222Z,23.20
2022-10-28T20:03:57.943Z,24.65
2022-10-28T20:06:27.531Z,24.05
2022-10-28T20:08:54.374Z,23.65
2022-10-28T20:11:27.207Z,24.60
2022-10-28T20:13:55.863Z,25.35
2022-10-28T20:16:23.273Z,25.10
2022-10-28T20:18:50.634Z,24.58
2022-10-28T20:21:19.792Z,25.60
2022-10-28T20:26:16.906Z,24.40
2022-10-28T20:28:43.824Z,22.70
2022-10-28T20:31:12.835Z,24.00
2022-10-28T20:33:41.975Z,23.55
2022-10-28T20:36:26.522Z,23.58
2022-10-28T20:38:58.387Z,21.80
2022-10-28T20:41:27.491Z,22.25
2022-10-28T20:44:01.588Z,20.02
2022-10-28T20:46:28.665Z,21.80
2022-10-28T20:48:56.629Z,20.85
2022-10-28T20:51:25.648Z,19.85
2022-10-28T20:53:52.623Z,19.02
2022-10-28T20:56:24.751Z,15.35
2022-10-28T20:58:52.724Z,16.52
2022-10-28T21:01:25.367Z,16.92
2022-10-28T21:04:05.298Z,14.85
2022-10-28T21:06:32.518Z,17.15
2022-10-28T21:08:59.594Z,15.73
2022-10-28T21:11:28.301Z,14.52
2022-10-28T21:13:58.668Z,13.95
2022-10-28T21:16:27.343Z,12.85
2022-10-28T21:18:55.002Z,13.15
2022-10-28T21:21:23.205Z,15.65
2022-10-28T21:23:50.275Z,14.07
2022-10-28T21:26:17.270Z,12.43
2022-10-28T21:28:45.093Z,12.35
2022-10-28T21:31:14.499Z,12.38
2022-10-28T21:33:42.459Z,12.50
2022-10-28T21:36:17.093Z,13.52
2022-10-28T21:38:44.270Z,12.32
2022-10-28T21:41:17.813Z,12.10
2022-10-28T21:43:48.608Z,12.23
2022-10-28T21:46:16.852Z,14.23
2022-10-28T21:48:43.992Z,13.10
2022-10-28T21:51:14.405Z,12.05
2022-10-28T21:53:43.052Z,12.00
2022-10-28T21:56:18.296Z,11.90
2022-10-28T21:58:50.557Z,11.35
2022-10-28T22:01:19.072Z,10.88
2022-10-28T22:03:46.122Z,11.10
2022-10-28T22:06:13.184Z,12.23
2022-10-28T22:08:40.186Z,13.02
2022-10-28T22:11:11.604Z,230.23
2022-10-28T22:13:38.622Z,28.90
2022-10-28T22:16:08.365Z,18.08
2022-10-28T22:18:37.493Z,13.45
2022-10-28T22:21:14.559Z,13.68
2022-10-28T22:23:42.060Z,12.35
2022-10-28T22:26:11.628Z,11.48
2022-10-28T22:28:39.971Z,12.70
2022-10-28T22:31:09.218Z,14.20
2022-10-28T22:33:36.349Z,12.43
2022-10-28T22:36:09.289Z,12.45
2022-10-28T22:38:36.412Z,13.32
2022-10-28T22:41:21.263Z,11.93
2022-10-28T22:43:51.091Z,12.80
2022-10-28T22:46:18.332Z,12.48
2022-10-28T22:48:45.939Z,13.18
2022-10-28T22:51:13.453Z,12.45
2022-10-28T22:53:40.807Z,13.73
2022-10-28T22:56:09.711Z,11.70
2022-10-28T22:58:36.594Z,206.85
2022-10-28T23:01:18.557Z,27.00
2022-10-28T23:03:48.280Z,14.98
2022-10-28T23:06:18.436Z,12.30
2022-10-28T23:08:46.067Z,12.88
2022-10-28T23:11:14.169Z,13.30
2022-10-28T23:13:41.005Z,12.70
2022-10-28T23:16:10.310Z,13.23
2022-10-28T23:18:37.785Z,13.70
2022-10-28T23:21:12.863Z,14.40
2022-10-28T23:23:40.855Z,14.45
2022-10-28T23:26:10.567Z,14.40
2022-10-28T23:28:37.491Z,13.20
2022-10-28T23:31:05.832Z,14.57
2022-10-28T23:33:34.203Z,14.93
2022-10-28T23:36:06.164Z,13.95
2022-10-28T23:38:33.410Z,14.70
2022-10-28T23:41:05.249Z,13.85
2022-10-28T23:43:32.908Z,13.77
2022-10-28T23:46:00.376Z,13.98
2022-10-28T23:48:28.659Z,12.95
2022-10-28T23:50:56.394Z,12.40
2022-10-28T23:53:24.216Z,13.50
2022-10-28T23:55:52.236Z,14.70
2022-10-28T23:58:20.871Z,14.15
